createdAt,value
2018-11-10T00:02:16.536Z,19.13
2018-11-10T00:04:45.845Z,19.90
2018-11-10T00:07:15.251Z,19.27
2018-11-10T00:09:44.519Z,20.47
2018-11-10T00:12:13.811Z,19.13
2018-11-10T00:14:43.109Z,19.33
2018-11-10T00:17:12.436Z,19.07
2018-11-10T00:19:41.747Z,21.40
2018-11-10T00:22:11.108Z,19.93
2018-11-10T00:24:40.382Z,20.27
2018-11-10T00:27:09.664Z,20.60
2018-11-10T00:29:38.970Z,19.47
2018-11-10T00:32:08.295Z,20.47
2018-11-10T00:34:37.619Z,18.63
2018-11-10T00:37:07.064Z,19.30
2018-11-10T00:39:36.409Z,19.23
2018-11-10T00:42:06.214Z,18.80
2018-11-10T00:44:35.553Z,18.60
2018-11-10T00:47:05.088Z,20.50
2018-11-10T00:49:34.508Z,18.30
2018-11-10T00:52:03.807Z,19.70
2018-11-10T00:54:33.074Z,19.33
2018-11-10T00:57:02.378Z,20.27
2018-11-10T00:59:31.690Z,20.97
2018-11-10T01:02:01.006Z,19.77
2018-11-10T01:04:30.308Z,20.30
2018-11-10T01:06:59.617Z,19.13
2018-11-10T01:09:28.906Z,19.70
2018-11-10T01:11:58.219Z,19.90
2018-11-10T01:14:27.527Z,18.93
2018-11-10T01:16:56.815Z,18.27
2018-11-10T01:19:26.129Z,19.27
2018-11-10T01:21:55.403Z,17.03
2018-11-10T01:24:24.734Z,17.00
2018-11-10T01:26:54.013Z,19.20
2018-11-10T01:29:23.326Z,16.47
2018-11-10T01:31:52.607Z,17.63
2018-11-10T01:34:22.023Z,18.77
2018-11-10T01:36:51.366Z,16.80
2018-11-10T01:39:20.621Z,18.60
2018-11-10T01:41:49.900Z,18.70
2018-11-10T01:44:19.216Z,17.13
2018-11-10T01:46:48.470Z,17.30
2018-11-10T01:49:17.817Z,17.87
2018-11-10T01:51:47.118Z,17.40
2018-11-10T01:54:16.429Z,17.43
2018-11-10T01:56:45.751Z,17.80
2018-11-10T01:59:15.018Z,16.70
2018-11-10T02:01:44.334Z,17.97
2018-11-10T02:04:13.675Z,16.80
2018-11-10T02:06:43.020Z,16.50
2018-11-10T02:09:12.283Z,17.17
2018-11-10T02:11:41.588Z,18.27
2018-11-10T02:14:10.842Z,17.30
2018-11-10T02:16:40.135Z,17.33
2018-11-10T02:19:09.436Z,16.90
2018-11-10T02:21:38.759Z,16.53
2018-11-10T02:24:08.080Z,15.10
2018-11-10T02:26:37.503Z,17.60
2018-11-10T02:29:06.756Z,17.00
2018-11-10T02:31:36.059Z,16.43
2018-11-10T02:34:05.715Z,18.40
2018-11-10T02:36:35.030Z,16.27
2018-11-10T02:39:05.880Z,19.77
2018-11-10T02:41:35.382Z,17.40
2018-11-10T02:44:04.736Z,18.00
2018-11-10T02:46:34.026Z,18.40
2018-11-10T02:49:03.410Z,17.63
2018-11-10T02:51:32.667Z,17.47
2018-11-10T02:54:01.978Z,19.70
2018-11-10T02:56:31.296Z,19.03
2018-11-10T02:59:00.562Z,19.57
2018-11-10T03:01:29.845Z,18.97
2018-11-10T03:03:59.186Z,20.23
2018-11-10T03:06:28.463Z,20.00
2018-11-10T03:08:57.765Z,19.70
2018-11-10T03:11:27.082Z,20.67
2018-11-10T03:13:56.369Z,19.20
2018-11-10T03:16:25.702Z,21.70
2018-11-10T03:18:54.963Z,22.47
2018-11-10T03:21:24.275Z,20.77
2018-11-10T03:23:53.597Z,24.37
2018-11-10T03:26:22.905Z,23.97
2018-11-10T03:28:54.529Z,24.63
2018-11-10T03:31:23.908Z,23.00
2018-11-10T03:33:53.207Z,24.77
2018-11-10T03:36:22.622Z,24.00
2018-11-10T03:38:51.961Z,23.17
2018-11-10T03:41:21.265Z,23.07
2018-11-10T03:43:50.493Z,21.73
2018-11-10T03:46:19.831Z,24.73
2018-11-10T03:48:49.179Z,26.97
2018-11-10T03:51:18.434Z,26.13
2018-11-10T03:53:47.736Z,24.77
2018-11-10T03:56:17.003Z,27.13
2018-11-10T03:58:46.278Z,26.70
2018-11-10T04:01:15.637Z,22.90
2018-11-10T04:03:44.898Z,27.80
2018-11-10T04:06:14.249Z,24.33
2018-11-10T04:08:43.522Z,25.53
2018-11-10T04:11:12.775Z,24.03
2018-11-10T04:13:42.028Z,25.17
2018-11-10T04:16:11.298Z,25.30
2018-11-10T04:18:40.627Z,24.93
2018-11-10T04:21:09.927Z,25.37
2018-11-10T04:23:41.982Z,24.20
2018-11-10T04:26:12.274Z,27.63
2018-11-10T04:28:41.547Z,27.00
2018-11-10T04:31:10.823Z,27.97
2018-11-10T04:33:40.108Z,27.63
2018-11-10T04:36:09.391Z,26.20
2018-11-10T04:38:39.022Z,25.63
2018-11-10T04:41:08.363Z,28.07
2018-11-10T04:43:37.749Z,28.17
2018-11-10T04:46:07.125Z,28.07
2018-11-10T04:48:36.515Z,28.37
2018-11-10T04:51:09.858Z,27.20
2018-11-10T04:53:39.122Z,27.23
2018-11-10T04:56:10.746Z,29.00
2018-11-10T04:58:40.077Z,28.97
2018-11-10T05:01:09.334Z,27.60
2018-11-10T05:03:38.756Z,28.23
2018-11-10T05:06:08.010Z,28.53
2018-11-10T05:08:37.349Z,28.00
2018-11-10T05:11:06.807Z,32.63
2018-11-10T05:13:36.079Z,27.53
2018-11-10T05:16:05.448Z,27.87
2018-11-10T05:18:34.720Z,28.63
2018-11-10T05:21:04.079Z,30.73
2018-11-10T05:23:33.702Z,30.70
2018-11-10T05:26:02.981Z,30.40
2018-11-10T05:28:32.339Z,29.40
2018-11-10T05:31:01.669Z,29.23
2018-11-10T05:33:30.954Z,26.60
2018-11-10T05:36:00.245Z,28.43
2018-11-10T05:38:29.554Z,30.57
2018-11-10T05:40:58.975Z,28.57
2018-11-10T05:43:29.164Z,27.50
2018-11-10T05:45:58.836Z,29.87
2018-11-10T05:48:28.421Z,28.63
2018-11-10T05:50:58.869Z,31.97
2018-11-10T05:53:28.174Z,30.13
2018-11-10T05:55:57.455Z,27.57
2018-11-10T05:58:26.718Z,29.80
2018-11-10T06:00:56.049Z,32.63
2018-11-10T06:03:25.305Z,27.47
2018-11-10T06:05:54.582Z,26.73
2018-11-10T06:08:23.859Z,29.57
2018-11-10T06:10:54.238Z,33.13
2018-11-10T06:13:24.420Z,25.83
2018-11-10T06:15:54.454Z,29.00
2018-11-10T06:18:23.736Z,30.70
2018-11-10T06:20:53.369Z,28.97
2018-11-10T06:23:22.662Z,29.47
2018-11-10T06:25:51.954Z,33.50
2018-11-10T06:28:21.300Z,31.03
2018-11-10T06:30:50.654Z,29.00
2018-11-10T06:33:19.974Z,28.33
2018-11-10T06:35:49.276Z,30.53
2018-11-10T06:38:18.548Z,29.13
2018-11-10T06:40:47.891Z,29.90
2018-11-10T06:43:17.176Z,30.27
2018-11-10T06:45:46.633Z,31.27
2018-11-10T06:48:16.054Z,29.90
2018-11-10T06:50:45.311Z,36.23
2018-11-10T06:53:14.638Z,29.50
2018-11-10T06:55:43.903Z,32.23
2018-11-10T06:58:13.163Z,29.43
2018-11-10T07:00:42.427Z,28.63
2018-11-10T07:03:11.762Z,29.40
2018-11-10T07:05:41.048Z,29.10
2018-11-10T07:08:10.331Z,29.73
2018-11-10T07:10:39.693Z,28.50
2018-11-10T07:13:08.979Z,35.43
2018-11-10T07:15:38.291Z,29.23
2018-11-10T07:18:07.704Z,30.03
2018-11-10T07:20:37.005Z,34.00
2018-11-10T07:23:06.371Z,31.57
2018-11-10T07:25:35.654Z,30.40
2018-11-10T07:28:05.002Z,28.83
2018-11-10T07:30:34.315Z,26.70
2018-11-10T07:33:03.577Z,26.93
2018-11-10T07:35:32.901Z,27.67
2018-11-10T07:38:02.197Z,34.33
2018-11-10T07:40:31.472Z,32.63
2018-11-10T07:43:00.830Z,32.03
2018-11-10T07:45:30.166Z,30.37
2018-11-10T07:47:59.438Z,34.83
2018-11-10T07:50:29.487Z,31.20
2018-11-10T07:52:58.771Z,30.97
2018-11-10T07:55:28.036Z,31.73
2018-11-10T07:57:57.304Z,31.57
2018-11-10T08:00:26.601Z,30.93
2018-11-10T08:02:55.918Z,27.87
2018-11-10T08:05:25.184Z,33.57
2018-11-10T08:07:54.446Z,30.07
2018-11-10T08:10:23.692Z,33.43
2018-11-10T08:12:52.975Z,32.17
2018-11-10T08:15:22.266Z,32.97
2018-11-10T08:17:51.559Z,36.40
2018-11-10T08:20:20.839Z,32.87
2018-11-10T08:22:50.148Z,34.60
2018-11-10T08:25:19.423Z,35.47
2018-11-10T08:27:48.730Z,31.93
2018-11-10T08:30:17.977Z,31.87
2018-11-10T08:32:47.401Z,33.20
2018-11-10T08:35:17.295Z,32.33
2018-11-10T08:37:46.563Z,35.50
2018-11-10T08:40:16.953Z,32.67
2018-11-10T08:42:46.318Z,37.23
2018-11-10T08:45:16.154Z,36.63
2018-11-10T08:47:45.671Z,35.03
2018-11-10T08:50:16.199Z,63.50
2018-11-10T08:52:45.462Z,68.70
2018-11-10T08:55:15.005Z,45.33
2018-11-10T08:57:44.538Z,53.27
2018-11-10T09:00:13.876Z,48.50
2018-11-10T09:02:43.178Z,43.93
2018-11-10T09:05:12.922Z,45.17
2018-11-10T09:07:42.527Z,48.80
2018-11-10T09:10:13.563Z,45.87
2018-11-10T09:12:42.858Z,46.53
2018-11-10T09:15:14.418Z,44.10
2018-11-10T09:17:43.975Z,44.20
2018-11-10T09:20:14.575Z,47.60
2018-11-10T09:22:44.462Z,44.53
2018-11-10T09:25:15.302Z,43.30
2018-11-10T09:27:44.617Z,46.10
2018-11-10T09:30:15.233Z,45.23
2018-11-10T09:32:44.502Z,47.07
2018-11-10T09:35:14.665Z,46.87
2018-11-10T09:37:43.985Z,45.27
2018-11-10T09:40:14.475Z,39.93
2018-11-10T09:42:43.932Z,51.27
2018-11-10T09:45:15.323Z,46.93
2018-11-10T09:47:44.661Z,43.03
2018-11-10T09:50:16.298Z,43.67
2018-11-10T09:52:46.069Z,41.40
2018-11-10T09:55:15.936Z,45.00
2018-11-10T09:57:45.275Z,45.77
2018-11-10T10:00:19.738Z,37.27
2018-11-10T10:02:49.464Z,41.60
2018-11-10T10:05:18.381Z,39.60
2018-11-10T10:07:47.714Z,42.43
2018-11-10T10:10:18.010Z,42.00
2018-11-10T10:12:47.594Z,47.10
2018-11-10T10:15:18.083Z,39.93
2018-11-10T10:17:47.566Z,47.00
2018-11-10T10:20:19.145Z,45.37
2018-11-10T10:22:49.273Z,43.30
2018-11-10T10:25:20.247Z,40.90
2018-11-10T10:27:50.328Z,42.87
2018-11-10T10:30:23.929Z,41.23
2018-11-10T10:32:53.415Z,40.47
2018-11-10T10:35:25.744Z,37.30
2018-11-10T10:37:54.926Z,36.87
2018-11-10T10:40:24.620Z,37.07
2018-11-10T10:42:54.109Z,44.47
2018-11-10T10:45:24.339Z,42.03
2018-11-10T10:47:53.658Z,37.80
2018-11-10T10:50:23.758Z,39.80
2018-11-10T10:52:53.146Z,45.33
2018-11-10T10:55:22.867Z,46.53
2018-11-10T10:57:52.443Z,46.60
2018-11-10T11:00:27.101Z,39.30
2018-11-10T11:02:59.411Z,41.23
2018-11-10T11:05:33.785Z,39.60
2018-11-10T11:08:03.120Z,40.30
2018-11-10T11:10:32.479Z,37.67
2018-11-10T11:13:01.819Z,39.20
2018-11-10T11:15:31.222Z,39.17
2018-11-10T11:18:00.659Z,39.37
2018-11-10T11:20:30.159Z,35.37
2018-11-10T11:22:59.684Z,40.17
2018-11-10T11:25:29.480Z,37.87
2018-11-10T11:27:59.023Z,40.80
2018-11-10T11:30:29.600Z,35.80
2018-11-10T11:32:59.157Z,39.97
2018-11-10T11:35:29.401Z,37.67
2018-11-10T11:37:59.038Z,36.40
2018-11-10T11:40:29.112Z,34.47
2018-11-10T11:42:58.922Z,35.13
2018-11-10T11:45:28.899Z,35.97
2018-11-10T11:47:58.858Z,37.77
2018-11-10T11:50:29.139Z,30.83
2018-11-10T11:52:59.779Z,36.53
2018-11-10T11:55:30.426Z,30.73
2018-11-10T11:58:00.249Z,35.23
2018-11-10T12:00:30.357Z,33.33
2018-11-10T12:03:00.303Z,34.80
2018-11-10T12:05:30.257Z,37.50
2018-11-10T12:08:00.167Z,32.57
2018-11-10T12:10:30.416Z,31.87
2018-11-10T12:13:00.081Z,31.03
2018-11-10T12:15:30.166Z,32.87
2018-11-10T12:18:00.117Z,33.30
2018-11-10T12:20:30.095Z,32.30
2018-11-10T12:23:00.055Z,34.63
2018-11-10T12:25:30.049Z,35.03
2018-11-10T12:28:00.054Z,31.10
2018-11-10T12:30:30.119Z,34.27
2018-11-10T12:33:00.149Z,33.17
2018-11-10T12:35:30.168Z,29.77
2018-11-10T12:38:00.103Z,31.83
2018-11-10T12:40:30.079Z,34.57
2018-11-10T12:43:00.087Z,34.80
2018-11-10T12:45:30.093Z,33.47
2018-11-10T12:48:00.065Z,33.23
2018-11-10T12:50:30.038Z,29.40
2018-11-10T12:52:59.967Z,38.13
2018-11-10T12:55:29.951Z,32.30
2018-11-10T12:57:59.934Z,31.70
2018-11-10T13:00:29.907Z,37.50
2018-11-10T13:02:59.879Z,39.60
2018-11-10T13:05:29.893Z,33.50
2018-11-10T13:07:59.897Z,37.27
2018-11-10T13:10:29.986Z,37.10
2018-11-10T13:13:00.358Z,37.37
2018-11-10T13:15:30.394Z,34.47
2018-11-10T13:18:00.386Z,33.80
2018-11-10T13:20:31.182Z,28.47
2018-11-10T13:23:01.311Z,27.50
2018-11-10T13:25:31.339Z,33.23
2018-11-10T13:28:03.521Z,29.13
2018-11-10T13:30:33.564Z,31.47
2018-11-10T13:33:03.686Z,32.07
2018-11-10T13:35:33.762Z,34.87
2018-11-10T13:38:03.921Z,28.57
2018-11-10T13:40:34.027Z,29.50
2018-11-10T13:43:04.187Z,32.93
2018-11-10T13:45:34.243Z,30.43
2018-11-10T13:48:04.312Z,30.93
2018-11-10T13:50:34.496Z,30.60
2018-11-10T13:53:05.349Z,37.90
2018-11-10T13:55:34.962Z,35.17
2018-11-10T13:58:05.104Z,29.13
2018-11-10T14:00:35.235Z,33.17
2018-11-10T14:03:05.293Z,31.30
2018-11-10T14:05:35.493Z,31.57
2018-11-10T14:08:05.554Z,28.87
2018-11-10T14:10:35.637Z,30.00
2018-11-10T14:13:06.351Z,34.37
2018-11-10T14:15:36.515Z,29.53
2018-11-10T14:18:06.610Z,32.73
2018-11-10T14:20:36.705Z,31.63
2018-11-10T14:23:06.851Z,30.37
2018-11-10T14:25:36.974Z,30.10
2018-11-10T14:28:07.071Z,27.93
2018-11-10T14:30:37.139Z,30.97
2018-11-10T14:33:07.714Z,37.23
2018-11-10T14:35:37.786Z,31.13
2018-11-10T14:38:07.856Z,34.47
2018-11-10T14:40:37.874Z,30.77
2018-11-10T14:43:07.972Z,27.30
2018-11-10T14:45:38.087Z,27.90
2018-11-10T14:48:08.178Z,28.80
2018-11-10T14:50:38.243Z,30.93
2018-11-10T14:53:08.498Z,28.80
2018-11-10T14:55:38.463Z,30.43
2018-11-10T14:58:08.561Z,28.40
2018-11-10T15:00:38.606Z,25.60
2018-11-10T15:03:09.274Z,29.40
2018-11-10T15:05:39.414Z,26.50
2018-11-10T15:08:09.453Z,26.70
2018-11-10T15:10:39.545Z,28.50
2018-11-10T15:13:09.632Z,32.47
2018-11-10T15:15:39.744Z,31.87
2018-11-10T15:18:10.655Z,30.17
2018-11-10T15:20:40.626Z,30.43
2018-11-10T15:23:12.518Z,30.13
2018-11-10T15:25:42.674Z,29.70
2018-11-10T15:28:13.048Z,28.30
2018-11-10T15:30:43.096Z,27.27
2018-11-10T15:33:13.456Z,31.00
2018-11-10T15:35:43.559Z,30.77
2018-11-10T15:38:13.902Z,32.40
2018-11-10T15:40:44.747Z,30.03
2018-11-10T15:43:15.674Z,30.27
2018-11-10T15:45:45.791Z,32.63
2018-11-10T15:48:15.907Z,29.83
2018-11-10T15:50:50.616Z,31.50
2018-11-10T15:53:22.388Z,35.57
2018-11-10T15:55:53.506Z,31.27
2018-11-10T15:58:23.631Z,32.63
2018-11-10T16:00:55.099Z,28.70
2018-11-10T16:03:25.214Z,32.97
2018-11-10T16:05:55.589Z,30.77
2018-11-10T16:08:27.192Z,30.70
2018-11-10T16:10:57.353Z,29.83
2018-11-10T16:13:28.804Z,33.50
2018-11-10T16:15:59.824Z,34.33
2018-11-10T16:18:29.938Z,34.27
2018-11-10T16:21:00.102Z,32.10
2018-11-10T16:23:31.290Z,30.67
2018-11-10T16:26:01.453Z,31.73
2018-11-10T16:28:32.364Z,36.00
2018-11-10T16:31:02.516Z,35.80
2018-11-10T16:33:33.605Z,32.47
2018-11-10T16:36:04.453Z,32.93
2018-11-10T16:38:34.955Z,33.93
2018-11-10T16:41:05.125Z,35.60
2018-11-10T16:43:35.246Z,32.33
2018-11-10T16:46:06.335Z,33.27
2018-11-10T16:48:38.552Z,38.67
2018-11-10T16:51:08.711Z,30.83
2018-11-10T16:53:38.838Z,32.23
2018-11-10T16:56:08.972Z,34.00
2018-11-10T16:58:39.141Z,35.43
2018-11-10T17:01:09.244Z,50.00
2018-11-10T17:03:40.097Z,45.87
2018-11-10T17:06:10.213Z,50.13
2018-11-10T17:08:40.340Z,50.67
2018-11-10T17:11:10.470Z,44.47
2018-11-10T17:13:40.861Z,47.17
2018-11-10T17:16:10.945Z,44.00
2018-11-10T17:18:41.107Z,44.70
2018-11-10T17:21:12.417Z,54.27
2018-11-10T17:23:42.529Z,50.83
2018-11-10T17:26:13.266Z,39.57
2018-11-10T17:28:46.085Z,38.80
2018-11-10T17:31:16.263Z,40.00
2018-11-10T17:33:47.347Z,38.30
2018-11-10T17:36:17.678Z,38.40
2018-11-10T17:38:47.819Z,36.57
2018-11-10T17:41:18.639Z,41.53
2018-11-10T17:43:48.962Z,36.40
2018-11-10T17:46:20.663Z,41.17
2018-11-10T17:48:50.798Z,33.90
2018-11-10T17:51:20.908Z,32.60
2018-11-10T17:53:52.289Z,34.57
2018-11-10T17:56:22.437Z,34.03
2018-11-10T17:58:53.357Z,33.13
2018-11-10T18:01:23.526Z,37.87
2018-11-10T18:03:53.812Z,30.23
2018-11-10T18:06:23.915Z,33.17
2018-11-10T18:08:54.709Z,32.03
2018-11-10T18:11:24.859Z,31.47
2018-11-10T18:13:55.542Z,31.57
2018-11-10T18:16:25.692Z,32.13
2018-11-10T18:18:55.822Z,34.47
2018-11-10T18:21:28.523Z,33.53
2018-11-10T18:23:59.391Z,31.50
2018-11-10T18:26:29.560Z,32.93
2018-11-10T18:29:01.348Z,29.80
2018-11-10T18:31:31.591Z,30.37
2018-11-10T18:34:03.367Z,30.60
2018-11-10T18:36:33.963Z,30.03
2018-11-10T18:39:05.416Z,31.17
2018-11-10T18:41:35.571Z,29.40
2018-11-10T18:44:06.006Z,30.70
2018-11-10T18:46:37.298Z,30.80
2018-11-10T18:49:07.552Z,27.60
2018-11-10T18:51:37.678Z,28.10
2018-11-10T18:54:08.223Z,28.90
2018-11-10T18:56:38.573Z,26.73
2018-11-10T18:59:10.015Z,28.03
2018-11-10T19:01:40.625Z,26.93
2018-11-10T19:04:10.947Z,30.30
2018-11-10T19:06:41.257Z,27.33
2018-11-10T19:09:13.731Z,31.03
2018-11-10T19:11:45.460Z,27.80
2018-11-10T19:14:17.909Z,26.23
2018-11-10T19:16:48.642Z,25.23
2018-11-10T19:19:22.012Z,31.07
2018-11-10T19:21:56.306Z,29.83
2018-11-10T19:24:26.683Z,29.30
2018-11-10T19:26:58.681Z,27.53
2018-11-10T19:29:29.616Z,29.53
2018-11-10T19:32:02.314Z,27.33
2018-11-10T19:34:35.867Z,29.13
2018-11-10T19:37:06.255Z,26.07
2018-11-10T19:39:36.544Z,28.73
2018-11-10T19:42:07.041Z,25.67
2018-11-10T19:44:38.145Z,29.97
2018-11-10T19:47:09.711Z,27.87
2018-11-10T19:49:40.173Z,27.17
2018-11-10T19:52:11.343Z,27.67
2018-11-10T19:54:41.368Z,27.90
2018-11-10T19:57:11.500Z,25.33
2018-11-10T19:59:44.346Z,26.00
2018-11-10T20:02:14.763Z,24.47
2018-11-10T20:04:44.863Z,26.60
2018-11-10T20:07:15.900Z,26.63
2018-11-10T20:09:46.047Z,29.30
2018-11-10T20:12:16.163Z,29.50
2018-11-10T20:14:48.176Z,23.33
2018-11-10T20:17:18.895Z,25.53
2018-11-10T20:19:49.041Z,24.77
2018-11-10T20:22:20.030Z,27.83
2018-11-10T20:24:50.162Z,25.53
2018-11-10T20:27:20.990Z,25.00
2018-11-10T20:29:51.100Z,28.30
2018-11-10T20:32:21.271Z,25.73
2018-11-10T20:34:51.375Z,23.87
2018-11-10T20:37:21.486Z,25.57
2018-11-10T20:39:51.598Z,25.80
2018-11-10T20:42:21.674Z,25.67
2018-11-10T20:44:51.920Z,27.63
2018-11-10T20:47:21.980Z,26.17
2018-11-10T20:49:53.236Z,26.87
2018-11-10T20:52:24.472Z,27.40
2018-11-10T20:54:54.587Z,27.00
2018-11-10T20:57:24.715Z,26.27
2018-11-10T20:59:54.826Z,26.53
2018-11-10T21:02:25.948Z,26.77
2018-11-10T21:04:56.078Z,24.90
2018-11-10T21:07:26.304Z,25.13
2018-11-10T21:09:56.393Z,24.37
2018-11-10T21:12:26.456Z,29.50
2018-11-10T21:14:56.539Z,25.77
2018-11-10T21:17:26.636Z,25.53
2018-11-10T21:19:56.777Z,26.27
2018-11-10T21:22:26.839Z,25.80
2018-11-10T21:24:56.952Z,27.43
2018-11-10T21:27:27.042Z,25.10
2018-11-10T21:29:57.156Z,24.83
2018-11-10T21:32:27.183Z,25.63
2018-11-10T21:34:57.293Z,23.07
2018-11-10T21:37:27.278Z,26.40
2018-11-10T21:39:57.242Z,26.33
2018-11-10T21:42:27.187Z,29.10
2018-11-10T21:44:56.991Z,26.10
2018-11-10T21:47:27.022Z,25.60
2018-11-10T21:49:56.839Z,24.70
2018-11-10T21:53:29.547Z,25.90
2018-11-10T21:55:59.300Z,25.27
2018-11-10T21:58:28.975Z,26.63
2018-11-10T22:00:58.821Z,24.17
2018-11-10T22:03:28.791Z,28.47
2018-11-10T22:05:58.820Z,27.70
2018-11-10T22:08:28.839Z,24.83
2018-11-10T22:10:58.911Z,26.47
2018-11-10T22:13:28.902Z,29.27
2018-11-10T22:15:58.898Z,26.27
2018-11-10T22:18:28.869Z,23.77
2018-11-10T22:20:58.890Z,23.77
2018-11-10T22:23:28.893Z,25.13
2018-11-10T22:25:58.959Z,27.13
2018-11-10T22:28:28.919Z,23.60
2018-11-10T22:30:58.960Z,24.17
2018-11-10T22:33:28.882Z,30.73
2018-11-10T22:35:58.683Z,25.93
2018-11-10T22:38:28.410Z,24.40
2018-11-10T22:40:57.935Z,26.97
2018-11-10T22:43:27.530Z,22.13
2018-11-10T22:45:57.016Z,26.07
2018-11-10T22:48:26.444Z,23.83
2018-11-10T22:50:55.744Z,24.53
2018-11-10T22:53:25.036Z,20.63
2018-11-10T22:55:54.325Z,24.63
2018-11-10T22:58:23.595Z,25.00
2018-11-10T23:00:58.158Z,23.73
2018-11-10T23:03:27.469Z,22.50
2018-11-10T23:05:56.794Z,23.67
2018-11-10T23:08:26.097Z,24.07
2018-11-10T23:10:55.395Z,20.83
2018-11-10T23:13:24.744Z,21.50
2018-11-10T23:15:54.063Z,23.70
2018-11-10T23:18:23.325Z,22.90
2018-11-10T23:20:52.626Z,22.67
2018-11-10T23:23:21.939Z,21.47
2018-11-10T23:25:51.237Z,22.67
2018-11-10T23:28:20.543Z,24.27
2018-11-10T23:30:49.844Z,25.13
2018-11-10T23:33:19.126Z,22.13
2018-11-10T23:35:48.377Z,24.40
2018-11-10T23:38:17.657Z,25.23
2018-11-10T23:40:46.926Z,20.67
2018-11-10T23:43:16.207Z,26.90
2018-11-10T23:45:45.483Z,23.93
2018-11-10T23:48:14.770Z,24.90
2018-11-10T23:50:44.055Z,25.20
2018-11-10T23:53:14.414Z,24.60
2018-11-10T23:55:43.755Z,25.67
2018-11-10T23:58:13.052Z,24.87
